Steuben, Ohio
Current Conditions -  °F | °C
As of 8:12 AM on Friday 24 Oct 2014 (Local Time) from KPCW Reporting Station
Clear Clear  
Wind Chill: 45°   Ceiling: Unl
Heat Index: 45°   Visibility: 9mi
Dew Point: 41°   Wind: 3mph
Humidity: 87%   Direction: 240°WSW
Pressure: 30.08"   Gusts: NA
Location:  41.2282°N, 82.706°W
Report Text: KPCW 241212Z AUTO 24003KT 9SM CLR 07/05 A3008 RMK AO2 $
Loading
Personal Weather Stations






























Interactive Weather Map
Tropical Storm Tracking
New forecast layout! Learn more

10-Day Weather Forecast

Advertisements
Track Severe Weather on mobile